createdAt,value
2022-12-08T00:00:46.482Z,1.95
2022-12-08T00:01:50.350Z,1.97
2022-12-08T00:02:53.364Z,1.97
2022-12-08T00:03:57.653Z,1.97
2022-12-08T00:05:18.842Z,1.98
2022-12-08T00:06:44.431Z,1.98
2022-12-08T00:08:05.465Z,1.98
2022-12-08T00:09:23.690Z,1.97
2022-12-08T00:10:48.386Z,1.97
2022-12-08T00:11:50.802Z,1.97
2022-12-08T00:12:54.900Z,1.98
2022-12-08T00:13:58.938Z,1.99
2022-12-08T00:15:03.048Z,2.01
2022-12-08T00:16:06.368Z,2.02
2022-12-08T00:17:11.807Z,2.03
2022-12-08T00:18:14.487Z,2.04
2022-12-08T00:19:18.214Z,2.04
2022-12-08T00:20:20.930Z,2.06
2022-12-08T00:21:24.618Z,2.05
2022-12-08T00:22:29.373Z,2.05
2022-12-08T00:23:33.139Z,2.05
2022-12-08T00:24:38.669Z,2.04
2022-12-08T00:25:42.429Z,2.06
2022-12-08T00:26:46.166Z,2.06
2022-12-08T00:27:48.788Z,2.06
2022-12-08T00:28:57.044Z,2.05
2022-12-08T00:29:59.737Z,2.07
2022-12-08T00:31:09.799Z,2.06
2022-12-08T00:32:13.613Z,2.07
2022-12-08T00:33:16.337Z,2.08
2022-12-08T00:34:20.076Z,2.09
2022-12-08T00:35:22.837Z,2.10
2022-12-08T00:36:26.653Z,2.12
2022-12-08T00:37:29.487Z,2.12
2022-12-08T00:38:33.230Z,2.13
2022-12-08T00:39:36.936Z,2.13
2022-12-08T00:40:44.445Z,2.15
2022-12-08T00:42:05.718Z,2.16
2022-12-08T00:43:09.439Z,2.15
2022-12-08T00:44:14.811Z,2.15
2022-12-08T00:45:18.723Z,2.15
2022-12-08T00:46:21.411Z,2.16
2022-12-08T00:47:25.292Z,2.16
2022-12-08T00:48:28.037Z,2.16
2022-12-08T00:49:31.789Z,2.17
2022-12-08T00:50:34.519Z,2.18
2022-12-08T00:51:38.468Z,2.20
2022-12-08T00:52:41.121Z,2.19
2022-12-08T00:53:44.761Z,2.20
2022-12-08T00:54:47.467Z,2.19
2022-12-08T00:55:51.137Z,2.20
2022-12-08T00:56:53.817Z,2.19
2022-12-08T00:57:57.527Z,2.20
2022-12-08T00:59:00.389Z,2.20
2022-12-08T01:00:06.898Z,2.20
2022-12-08T01:01:11.059Z,2.21
2022-12-08T01:02:14.820Z,2.21
2022-12-08T01:03:17.598Z,2.22
2022-12-08T01:04:21.617Z,2.24
2022-12-08T01:05:24.286Z,2.23
2022-12-08T01:06:28.148Z,2.24
2022-12-08T01:07:30.841Z,2.24
2022-12-08T01:08:34.789Z,2.26
2022-12-08T01:09:37.516Z,2.26
2022-12-08T01:10:41.326Z,2.27
2022-12-08T01:11:44.879Z,2.27
2022-12-08T01:12:48.552Z,2.28
2022-12-08T01:13:51.241Z,2.27
2022-12-08T01:14:59.196Z,2.28
2022-12-08T01:16:06.390Z,2.27
2022-12-08T01:17:10.282Z,2.27
2022-12-08T01:18:14.090Z,2.27
2022-12-08T01:19:17.318Z,2.29
2022-12-08T01:20:21.029Z,2.30
2022-12-08T01:21:23.720Z,2.30
2022-12-08T01:22:27.526Z,2.30
2022-12-08T01:23:30.330Z,2.30
2022-12-08T01:24:34.184Z,2.31
2022-12-08T01:25:36.810Z,2.31
2022-12-08T01:26:40.594Z,2.31
2022-12-08T01:27:43.239Z,2.31
2022-12-08T01:28:48.237Z,2.33
2022-12-08T01:29:52.092Z,2.32
2022-12-08T01:30:54.785Z,2.33
2022-12-08T01:31:59.984Z,2.33
2022-12-08T01:33:02.604Z,2.32
2022-12-08T01:34:06.569Z,2.33
2022-12-08T01:35:09.810Z,2.31
2022-12-08T01:36:21.688Z,2.32
2022-12-08T01:37:25.532Z,2.31
2022-12-08T01:38:28.365Z,2.32
2022-12-08T01:39:32.128Z,2.31
2022-12-08T01:40:34.838Z,2.32
2022-12-08T01:41:39.559Z,2.33
2022-12-08T01:42:42.257Z,2.32
2022-12-08T01:43:56.036Z,2.32
2022-12-08T01:45:01.596Z,2.32
2022-12-08T01:46:04.440Z,2.30
2022-12-08T01:47:09.632Z,2.30
2022-12-08T01:48:18.115Z,2.31
2022-12-08T01:49:23.898Z,2.32
2022-12-08T01:50:29.238Z,2.31
2022-12-08T01:51:35.588Z,2.32
2022-12-08T01:52:42.218Z,2.31
2022-12-08T01:53:45.087Z,2.32
2022-12-08T01:54:51.968Z,2.32
2022-12-08T01:55:56.732Z,2.33
2022-12-08T01:57:02.667Z,2.32
2022-12-08T01:58:11.816Z,2.31
2022-12-08T01:59:15.608Z,2.31
2022-12-08T02:00:20.467Z,2.30
2022-12-08T02:01:24.315Z,2.30
2022-12-08T02:02:31.294Z,2.30
2022-12-08T02:03:40.048Z,2.30
2022-12-08T02:04:42.979Z,2.30
2022-12-08T02:05:47.869Z,2.30
2022-12-08T02:06:51.627Z,2.28
2022-12-08T02:07:56.274Z,2.28
2022-12-08T02:09:00.450Z,2.27
2022-12-08T02:10:05.809Z,2.27
2022-12-08T02:11:10.100Z,2.25
2022-12-08T02:12:13.877Z,2.24
2022-12-08T02:13:17.897Z,2.24
2022-12-08T02:14:21.637Z,2.22
2022-12-08T02:15:32.343Z,2.21
2022-12-08T02:16:42.436Z,2.21
2022-12-08T02:17:55.456Z,2.21
2022-12-08T02:19:30.318Z,2.19
2022-12-08T02:20:46.167Z,2.18
2022-12-08T02:21:55.012Z,2.15
2022-12-08T02:23:03.297Z,2.16
2022-12-08T02:24:12.069Z,2.18
2022-12-08T02:25:22.567Z,2.18
2022-12-08T02:27:01.545Z,2.20
2022-12-08T02:28:12.579Z,2.17
2022-12-08T02:29:49.936Z,2.19
2022-12-08T02:31:03.344Z,2.18
2022-12-08T02:32:22.105Z,2.19
2022-12-08T02:33:55.244Z,2.19
2022-12-08T02:35:03.607Z,2.18
2022-12-08T02:36:09.029Z,2.18
2022-12-08T02:37:18.284Z,2.19
2022-12-08T02:38:25.148Z,2.20
2022-12-08T02:39:37.606Z,2.20
2022-12-08T02:40:46.587Z,2.20
2022-12-08T02:41:54.376Z,2.20
2022-12-08T02:43:02.259Z,2.22
2022-12-08T02:44:11.276Z,2.21
2022-12-08T02:45:23.920Z,2.22
2022-12-08T02:46:31.794Z,2.21
2022-12-08T02:47:36.210Z,2.20
2022-12-08T02:48:39.449Z,2.20
2022-12-08T02:49:43.400Z,2.19
2022-12-08T02:50:47.468Z,2.19
2022-12-08T02:51:51.268Z,2.18
2022-12-08T02:52:53.973Z,2.18
2022-12-08T02:53:58.080Z,2.18
2022-12-08T02:55:04.275Z,2.16
2022-12-08T02:56:15.899Z,2.15
2022-12-08T02:57:29.145Z,2.13
2022-12-08T02:58:57.167Z,2.08
2022-12-08T03:00:08.461Z,2.05
2022-12-08T03:01:22.649Z,2.04
2022-12-08T03:02:42.505Z,2.00
2022-12-08T03:03:49.119Z,1.96
2022-12-08T03:04:55.871Z,1.94
2022-12-08T03:06:08.469Z,1.92
2022-12-08T03:07:15.927Z,1.89
2022-12-08T03:08:24.861Z,1.88
2022-12-08T03:09:34.368Z,1.86
2022-12-08T03:10:42.086Z,1.86
2022-12-08T03:11:48.725Z,1.86
2022-12-08T03:12:56.006Z,1.85
2022-12-08T03:14:01.208Z,1.83
2022-12-08T03:15:09.729Z,1.83
2022-12-08T03:16:15.659Z,1.84
2022-12-08T03:17:22.110Z,1.85
2022-12-08T03:18:29.308Z,1.85
2022-12-08T03:19:35.541Z,1.84
2022-12-08T03:20:39.176Z,1.85
2022-12-08T03:21:46.028Z,1.84
2022-12-08T03:22:50.038Z,1.82
2022-12-08T03:23:55.694Z,1.82
2022-12-08T03:24:58.677Z,1.83
2022-12-08T03:26:08.689Z,1.83
2022-12-08T03:27:13.249Z,1.85
2022-12-08T03:28:17.167Z,1.86
2022-12-08T03:29:19.918Z,1.86
2022-12-08T03:30:23.630Z,1.86
2022-12-08T03:31:28.555Z,1.87
2022-12-08T03:32:37.266Z,1.87
2022-12-08T03:33:42.045Z,1.87
2022-12-08T03:34:48.340Z,1.88
2022-12-08T03:35:51.247Z,1.89
2022-12-08T03:36:56.388Z,1.89
2022-12-08T03:38:03.705Z,1.90
2022-12-08T03:39:07.478Z,1.90
2022-12-08T03:40:14.806Z,1.92
2022-12-08T03:41:21.299Z,1.93
2022-12-08T03:42:24.031Z,1.94
2022-12-08T03:43:27.853Z,1.95
2022-12-08T03:44:31.627Z,1.95
2022-12-08T03:45:34.561Z,1.94
2022-12-08T03:46:38.298Z,1.94
2022-12-08T03:47:40.979Z,1.95
2022-12-08T03:48:47.917Z,1.95
2022-12-08T03:49:51.681Z,1.95
2022-12-08T03:50:54.340Z,1.94
2022-12-08T03:52:00.356Z,1.94
2022-12-08T03:53:03.005Z,1.92
2022-12-08T03:54:06.809Z,1.91
2022-12-08T03:55:13.128Z,1.90
2022-12-08T03:56:21.368Z,1.88
2022-12-08T03:57:24.004Z,1.87
2022-12-08T03:58:30.773Z,1.86
2022-12-08T03:59:35.648Z,1.85
2022-12-08T04:00:39.292Z,1.83
2022-12-08T04:01:42.038Z,1.82
2022-12-08T04:02:45.947Z,1.83
2022-12-08T04:03:48.757Z,1.82
2022-12-08T04:04:53.469Z,1.82
2022-12-08T04:05:56.854Z,1.81
2022-12-08T04:07:02.779Z,1.81
2022-12-08T04:08:07.033Z,1.80
2022-12-08T04:09:13.738Z,1.81
2022-12-08T04:10:16.458Z,1.80
2022-12-08T04:11:20.912Z,1.80
2022-12-08T04:12:24.678Z,1.80
2022-12-08T04:13:28.887Z,1.79
2022-12-08T04:14:31.540Z,1.81
2022-12-08T04:15:35.328Z,1.81
2022-12-08T04:16:39.409Z,1.81
2022-12-08T04:17:42.982Z,1.82
2022-12-08T04:18:47.299Z,1.81
2022-12-08T04:19:50.289Z,1.80
2022-12-08T04:20:54.469Z,1.78
2022-12-08T04:21:58.301Z,1.76
2022-12-08T04:23:02.969Z,1.74
2022-12-08T04:24:07.371Z,1.72
2022-12-08T04:25:13.065Z,1.69
2022-12-08T04:26:17.669Z,1.67
2022-12-08T04:27:20.537Z,1.66
2022-12-08T04:28:24.498Z,1.63
2022-12-08T04:29:29.059Z,1.62
2022-12-08T04:30:32.198Z,1.60
2022-12-08T04:31:36.012Z,1.59
2022-12-08T04:32:47.099Z,1.57
2022-12-08T04:33:51.255Z,1.55
2022-12-08T04:34:55.181Z,1.55
2022-12-08T04:36:00.498Z,1.56
2022-12-08T04:37:07.308Z,1.54
2022-12-08T04:38:11.510Z,1.53
2022-12-08T04:39:15.190Z,1.55
2022-12-08T04:40:18.648Z,1.54
2022-12-08T04:41:22.381Z,1.54
2022-12-08T04:42:26.324Z,1.54
2022-12-08T04:43:30.499Z,1.56
2022-12-08T04:44:33.389Z,1.57
2022-12-08T04:45:37.140Z,1.60
2022-12-08T04:46:43.389Z,1.60
2022-12-08T04:47:50.285Z,1.62
2022-12-08T04:48:54.049Z,1.63
2022-12-08T04:49:56.853Z,1.63
2022-12-08T04:51:00.609Z,1.64
2022-12-08T04:52:03.338Z,1.64
2022-12-08T04:53:07.635Z,1.65
2022-12-08T04:54:11.783Z,1.66
2022-12-08T04:55:15.975Z,1.66
2022-12-08T04:56:20.065Z,1.67
2022-12-08T04:57:23.898Z,1.68
2022-12-08T04:58:26.646Z,1.70
2022-12-08T04:59:30.417Z,1.71
2022-12-08T05:00:33.859Z,1.72
2022-12-08T05:01:37.635Z,1.73
2022-12-08T05:02:40.721Z,1.76
2022-12-08T05:03:44.594Z,1.77
2022-12-08T05:04:47.836Z,1.78
2022-12-08T05:05:51.817Z,1.81
2022-12-08T05:06:54.467Z,1.82
2022-12-08T05:08:01.112Z,1.83
2022-12-08T05:09:03.877Z,1.83
2022-12-08T05:10:10.327Z,1.83
2022-12-08T05:11:15.399Z,1.86
2022-12-08T05:12:18.411Z,1.86
2022-12-08T05:13:22.250Z,1.86
2022-12-08T05:14:25.125Z,1.86
2022-12-08T05:15:29.380Z,1.86
2022-12-08T05:16:32.097Z,1.86
2022-12-08T05:17:36.147Z,1.87
2022-12-08T05:18:39.798Z,1.87
2022-12-08T05:19:43.447Z,1.86
2022-12-08T05:20:46.079Z,1.84
2022-12-08T05:21:50.229Z,1.82
2022-12-08T05:22:52.919Z,1.82
2022-12-08T05:23:57.032Z,1.83
2022-12-08T05:24:59.775Z,1.85
2022-12-08T05:26:05.247Z,1.85
2022-12-08T05:27:08.295Z,1.84
2022-12-08T05:28:40.067Z,1.85
2022-12-08T05:29:38.848Z,1.82
2022-12-08T05:30:42.839Z,1.82
2022-12-08T05:31:46.723Z,1.84
2022-12-08T05:32:49.761Z,1.82
2022-12-08T05:33:54.014Z,1.82
2022-12-08T05:34:56.851Z,1.82
2022-12-08T05:36:00.857Z,1.81
2022-12-08T05:37:03.548Z,1.80
2022-12-08T05:38:07.879Z,1.80
2022-12-08T05:39:13.980Z,1.80
2022-12-08T05:40:18.268Z,1.78
2022-12-08T05:41:22.777Z,1.79
2022-12-08T05:42:26.669Z,1.78
2022-12-08T05:43:29.668Z,1.77
2022-12-08T05:44:33.388Z,1.75
2022-12-08T05:45:36.069Z,1.75
2022-12-08T05:46:39.990Z,1.72
2022-12-08T05:47:43.190Z,1.71
2022-12-08T05:48:47.163Z,1.69
2022-12-08T05:49:50.051Z,1.69
2022-12-08T05:50:53.817Z,1.66
2022-12-08T05:51:56.527Z,1.64
2022-12-08T05:53:00.298Z,1.63
2022-12-08T05:54:03.138Z,1.62
2022-12-08T05:55:07.741Z,1.61
2022-12-08T05:56:12.352Z,1.61
2022-12-08T05:57:16.558Z,1.60
2022-12-08T05:58:21.308Z,1.59
2022-12-08T05:59:23.987Z,1.58
2022-12-08T06:00:27.806Z,1.56
2022-12-08T06:01:31.822Z,1.55
2022-12-08T06:02:36.007Z,1.53
2022-12-08T06:03:38.878Z,1.54
2022-12-08T06:04:42.899Z,1.53
2022-12-08T06:05:46.892Z,1.53
2022-12-08T06:06:51.202Z,1.52
2022-12-08T06:07:55.049Z,1.51
2022-12-08T06:08:57.846Z,1.50
2022-12-08T06:10:01.790Z,1.49
2022-12-08T06:11:04.660Z,1.46
2022-12-08T06:12:08.889Z,1.45
2022-12-08T06:13:13.070Z,1.43
2022-12-08T06:14:16.766Z,1.41
2022-12-08T06:15:19.438Z,1.39
2022-12-08T06:16:23.329Z,1.39
2022-12-08T06:17:26.027Z,1.37
2022-12-08T06:18:32.880Z,1.35
2022-12-08T06:19:35.757Z,1.33
2022-12-08T06:20:39.638Z,1.32
2022-12-08T06:21:43.337Z,1.30
2022-12-08T06:22:46.118Z,1.28
2022-12-08T06:23:50.807Z,1.27
2022-12-08T06:24:53.387Z,1.27
2022-12-08T06:25:57.156Z,1.27
2022-12-08T06:26:59.838Z,1.27
2022-12-08T06:28:03.520Z,1.26
2022-12-08T06:29:08.642Z,1.28
2022-12-08T06:30:11.868Z,1.28
2022-12-08T06:31:17.952Z,1.29
2022-12-08T06:32:25.819Z,1.28
2022-12-08T06:33:31.077Z,1.27
2022-12-08T06:34:34.808Z,1.28
2022-12-08T06:35:37.828Z,1.28
2022-12-08T06:36:41.557Z,1.28
2022-12-08T06:37:44.218Z,1.29
2022-12-08T06:38:48.141Z,1.30
2022-12-08T06:39:50.879Z,1.32
2022-12-08T06:40:56.175Z,1.33
2022-12-08T06:42:17.216Z,1.36
2022-12-08T06:43:20.948Z,1.37
2022-12-08T06:44:25.188Z,1.39
2022-12-08T06:45:29.032Z,1.41
2022-12-08T06:46:32.982Z,1.42
2022-12-08T06:47:35.786Z,1.43
2022-12-08T06:48:39.533Z,1.45
2022-12-08T06:49:42.250Z,1.47
2022-12-08T06:50:46.123Z,1.49
2022-12-08T06:51:48.822Z,1.52
2022-12-08T06:53:02.821Z,1.54
2022-12-08T06:54:08.738Z,1.57
2022-12-08T06:55:24.615Z,1.61
2022-12-08T06:56:35.618Z,1.61
2022-12-08T06:57:38.499Z,1.64
2022-12-08T06:58:45.055Z,1.66
2022-12-08T06:59:54.004Z,1.68
2022-12-08T07:00:56.824Z,1.71
2022-12-08T07:02:00.763Z,1.73
2022-12-08T07:03:03.551Z,1.76
2022-12-08T07:04:07.340Z,1.80
2022-12-08T07:05:10.009Z,1.83
2022-12-08T07:06:17.338Z,1.87
2022-12-08T07:07:20.000Z,1.88
2022-12-08T07:08:23.799Z,1.90
2022-12-08T07:09:27.574Z,1.93
2022-12-08T07:10:30.188Z,1.96
2022-12-08T07:11:33.968Z,1.98
2022-12-08T07:12:36.598Z,2.01
2022-12-08T07:13:40.519Z,2.03
2022-12-08T07:14:43.209Z,2.04
2022-12-08T07:15:48.308Z,2.08
2022-12-08T07:16:52.446Z,2.09
2022-12-08T07:17:59.834Z,2.12
2022-12-08T07:19:04.145Z,2.15
2022-12-08T07:20:08.229Z,2.17
2022-12-08T07:21:15.028Z,2.19
2022-12-08T07:22:18.857Z,2.22
2022-12-08T07:23:22.549Z,2.25
2022-12-08T07:24:26.285Z,2.25
2022-12-08T07:25:28.951Z,2.28
2022-12-08T07:26:32.739Z,2.30
2022-12-08T07:27:35.429Z,2.30
2022-12-08T07:28:41.540Z,2.31
2022-12-08T07:29:44.207Z,2.31
2022-12-08T07:30:49.395Z,2.29
2022-12-08T07:31:52.154Z,2.28
2022-12-08T07:32:55.925Z,2.27
2022-12-08T07:33:59.831Z,2.28
2022-12-08T07:35:02.565Z,2.27
2022-12-08T07:36:07.318Z,2.26
2022-12-08T07:37:10.002Z,2.25
2022-12-08T07:38:13.821Z,2.24
2022-12-08T07:39:16.522Z,2.24
2022-12-08T07:40:20.280Z,2.22
2022-12-08T07:41:25.519Z,2.19
2022-12-08T07:42:29.406Z,2.15
2022-12-08T07:43:32.370Z,2.13
2022-12-08T07:44:36.046Z,2.10
2022-12-08T07:45:38.688Z,2.08
2022-12-08T07:46:43.833Z,2.06
2022-12-08T07:47:46.640Z,2.03
2022-12-08T07:48:50.346Z,2.01
2022-12-08T07:49:54.035Z,1.97
2022-12-08T07:51:01.482Z,1.96
2022-12-08T07:52:05.339Z,1.93
2022-12-08T07:53:08.219Z,1.92
2022-12-08T07:54:13.060Z,1.89
2022-12-08T07:55:16.816Z,1.87
2022-12-08T07:56:19.471Z,1.86
2022-12-08T07:57:23.183Z,1.85
2022-12-08T07:58:26.014Z,1.83
2022-12-08T07:59:29.850Z,1.82
2022-12-08T08:00:32.560Z,1.80
2022-12-08T08:01:36.715Z,1.79
2022-12-08T08:02:41.992Z,1.77
2022-12-08T08:03:44.739Z,1.76
2022-12-08T08:04:51.579Z,1.75
2022-12-08T08:05:54.325Z,1.72
2022-12-08T08:06:58.233Z,1.70
2022-12-08T08:08:02.000Z,1.68
2022-12-08T08:09:06.112Z,1.67
2022-12-08T08:10:11.005Z,1.65
2022-12-08T08:11:20.806Z,1.64
2022-12-08T08:12:33.191Z,1.63
2022-12-08T08:13:37.408Z,1.64
2022-12-08T08:14:40.089Z,1.65
2022-12-08T08:15:43.946Z,1.68
2022-12-08T08:16:47.850Z,1.72
2022-12-08T08:17:52.676Z,1.80
2022-12-08T08:18:56.501Z,1.86
2022-12-08T08:20:00.324Z,1.93
2022-12-08T08:21:22.207Z,2.00
2022-12-08T08:22:27.023Z,2.08
2022-12-08T08:23:29.909Z,2.15
2022-12-08T08:24:33.721Z,2.24
2022-12-08T08:25:36.428Z,2.31
2022-12-08T08:26:40.108Z,2.38
2022-12-08T08:27:44.138Z,2.46
2022-12-08T08:28:48.328Z,2.51
2022-12-08T08:29:52.040Z,2.56
2022-12-08T08:30:55.193Z,2.62
2022-12-08T08:31:58.979Z,2.66
2022-12-08T08:33:03.040Z,2.70
2022-12-08T08:34:06.807Z,2.72
2022-12-08T08:35:11.239Z,2.74
2022-12-08T08:36:14.919Z,2.77
2022-12-08T08:37:17.729Z,2.80
2022-12-08T08:38:21.979Z,2.81
2022-12-08T08:39:26.095Z,2.81
2022-12-08T08:40:29.872Z,2.82
2022-12-08T08:41:32.508Z,2.82
2022-12-08T08:42:36.328Z,2.82
2022-12-08T08:43:39.207Z,2.81
2022-12-08T08:44:42.918Z,2.81
2022-12-08T08:45:45.677Z,2.81
2022-12-08T08:46:49.435Z,2.81
2022-12-08T08:47:52.172Z,2.81
2022-12-08T08:48:57.612Z,2.82
2022-12-08T08:50:00.319Z,2.82
2022-12-08T08:51:09.129Z,2.83
2022-12-08T08:52:12.868Z,2.83
2022-12-08T08:53:15.563Z,2.83
2022-12-08T08:54:19.209Z,2.83
2022-12-08T08:55:22.980Z,2.85
2022-12-08T08:56:25.935Z,2.84
2022-12-08T08:57:29.757Z,2.85
2022-12-08T08:58:32.417Z,2.85
2022-12-08T08:59:36.211Z,2.86
2022-12-08T09:00:38.898Z,2.86
2022-12-08T09:01:42.721Z,2.86
2022-12-08T09:02:46.519Z,2.86
2022-12-08T09:03:50.588Z,2.88
2022-12-08T09:04:55.789Z,2.90
2022-12-08T09:05:58.618Z,2.92
2022-12-08T09:07:02.320Z,2.95
2022-12-08T09:08:05.228Z,2.97
2022-12-08T09:09:08.999Z,3.02
2022-12-08T09:10:12.037Z,3.07
2022-12-08T09:11:15.898Z,3.14
2022-12-08T09:12:18.521Z,3.20
2022-12-08T09:13:22.495Z,3.25
2022-12-08T09:14:26.288Z,3.31
2022-12-08T09:15:30.262Z,3.36
2022-12-08T09:16:37.443Z,3.44
2022-12-08T09:17:44.200Z,3.49
2022-12-08T09:18:48.459Z,3.52
2022-12-08T09:19:52.223Z,3.56
2022-12-08T09:20:56.575Z,3.59
2022-12-08T09:22:00.349Z,3.64
2022-12-08T09:23:04.038Z,3.68
2022-12-08T09:24:07.261Z,3.72
2022-12-08T09:25:11.558Z,3.76
2022-12-08T09:26:15.299Z,3.81
2022-12-08T09:27:19.021Z,3.83
2022-12-08T09:28:22.750Z,3.86
2022-12-08T09:29:31.061Z,3.89
2022-12-08T09:30:37.859Z,3.90
2022-12-08T09:31:41.779Z,3.92
2022-12-08T09:32:45.598Z,3.94
2022-12-08T09:33:48.459Z,3.98
2022-12-08T09:34:52.511Z,4.02
2022-12-08T09:35:57.927Z,4.07
2022-12-08T09:37:01.624Z,4.12
2022-12-08T09:38:05.348Z,4.17
2022-12-08T09:39:08.027Z,4.22
2022-12-08T09:40:14.510Z,4.26
2022-12-08T09:41:30.812Z,4.31
2022-12-08T09:42:44.549Z,4.36
2022-12-08T09:43:57.254Z,4.43
2022-12-08T09:45:05.341Z,4.50
2022-12-08T09:46:11.194Z,4.53
2022-12-08T09:47:21.129Z,4.57
2022-12-08T09:48:27.472Z,4.62
2022-12-08T09:49:35.680Z,4.64
2022-12-08T09:50:41.762Z,4.64
2022-12-08T09:51:46.128Z,4.64
2022-12-08T09:52:59.226Z,4.63
2022-12-08T09:54:05.764Z,4.63
2022-12-08T09:55:15.018Z,4.66
2022-12-08T09:56:21.237Z,4.66
2022-12-08T09:57:24.788Z,4.69
2022-12-08T09:58:33.869Z,4.75
2022-12-08T09:59:37.781Z,4.78
2022-12-08T10:00:41.510Z,4.80
2022-12-08T10:01:45.411Z,4.86
2022-12-08T10:02:49.168Z,4.91
2022-12-08T10:03:54.989Z,4.97
2022-12-08T10:04:59.113Z,5.04
2022-12-08T10:06:08.701Z,5.12
2022-12-08T10:07:18.104Z,5.17
2022-12-08T10:08:25.505Z,5.19
2022-12-08T10:09:33.879Z,5.21
2022-12-08T10:10:41.207Z,5.27
2022-12-08T10:11:48.108Z,5.29
2022-12-08T10:12:56.268Z,5.30
2022-12-08T10:14:05.460Z,5.30
2022-12-08T10:15:24.090Z,5.30
2022-12-08T10:16:35.180Z,5.31
2022-12-08T10:17:41.342Z,5.33
2022-12-08T10:18:45.170Z,5.36
2022-12-08T10:19:49.030Z,5.39
2022-12-08T10:20:53.370Z,5.41
2022-12-08T10:21:58.449Z,5.40
2022-12-08T10:23:10.270Z,5.40
2022-12-08T10:24:20.008Z,5.41
2022-12-08T10:25:36.680Z,5.42
2022-12-08T10:26:40.918Z,5.44
2022-12-08T10:27:44.663Z,5.45
2022-12-08T10:28:48.680Z,5.44
2022-12-08T10:29:52.439Z,5.44
2022-12-08T10:30:56.595Z,5.43
2022-12-08T10:32:01.410Z,5.45
2022-12-08T10:33:04.610Z,5.45
2022-12-08T10:34:16.530Z,5.45
2022-12-08T10:35:21.598Z,5.41
2022-12-08T10:36:26.938Z,5.36
2022-12-08T10:37:29.770Z,5.31
2022-12-08T10:38:36.329Z,5.27
2022-12-08T10:39:40.454Z,5.24
2022-12-08T10:40:45.979Z,5.23
2022-12-08T10:41:49.723Z,5.20
2022-12-08T10:42:55.447Z,5.17
2022-12-08T10:44:01.748Z,5.17
2022-12-08T10:45:18.721Z,5.13
2022-12-08T10:46:26.045Z,5.13
2022-12-08T10:47:29.960Z,5.12
2022-12-08T10:48:34.127Z,5.12
2022-12-08T10:49:38.829Z,5.10
2022-12-08T10:50:44.750Z,5.10
2022-12-08T10:51:48.459Z,5.10
2022-12-08T10:52:57.295Z,5.10
2022-12-08T10:54:03.479Z,5.09
2022-12-08T10:55:14.860Z,5.07
2022-12-08T10:56:19.368Z,5.07
2022-12-08T10:57:23.990Z,5.05
2022-12-08T10:58:35.836Z,5.05
2022-12-08T10:59:43.656Z,5.04
2022-12-08T11:00:46.501Z,5.04
2022-12-08T11:01:52.463Z,5.03
2022-12-08T11:03:00.530Z,5.02
2022-12-08T11:04:05.609Z,5.01
2022-12-08T11:05:17.940Z,5.00
2022-12-08T11:06:24.858Z,4.99
2022-12-08T11:07:29.219Z,4.99
2022-12-08T11:08:32.191Z,4.98
2022-12-08T11:09:46.930Z,4.99
2022-12-08T11:10:49.947Z,4.96
2022-12-08T11:11:55.967Z,4.96
2022-12-08T11:13:02.220Z,4.95
2022-12-08T11:14:08.092Z,4.95
2022-12-08T11:15:16.664Z,4.93
2022-12-08T11:16:21.565Z,4.92
2022-12-08T11:17:26.556Z,4.91
2022-12-08T11:18:31.589Z,4.89
2022-12-08T11:19:39.031Z,4.89
2022-12-08T11:20:43.182Z,4.90
2022-12-08T11:21:47.446Z,4.91
2022-12-08T11:22:53.369Z,4.93
2022-12-08T11:23:57.094Z,4.94
2022-12-08T11:25:03.800Z,4.93
2022-12-08T11:26:15.129Z,4.94
2022-12-08T11:27:17.899Z,4.95
2022-12-08T11:28:25.171Z,4.95
2022-12-08T11:29:30.903Z,4.95
2022-12-08T11:30:37.299Z,4.94
2022-12-08T11:31:42.822Z,4.93
2022-12-08T11:32:46.907Z,4.92
2022-12-08T11:33:51.499Z,4.92
2022-12-08T11:34:56.823Z,4.92
2022-12-08T11:36:05.479Z,4.94
2022-12-08T11:37:14.480Z,4.95
2022-12-08T11:38:22.790Z,4.97
2022-12-08T11:39:28.069Z,4.96
2022-12-08T11:40:36.289Z,4.96
2022-12-08T11:41:42.084Z,4.95
2022-12-08T11:42:52.619Z,4.95
2022-12-08T11:44:00.708Z,4.96
2022-12-08T11:45:08.125Z,4.99
2022-12-08T11:46:16.532Z,5.02
2022-12-08T11:47:23.890Z,5.03
2022-12-08T11:48:33.511Z,5.05
2022-12-08T11:49:39.838Z,5.05
2022-12-08T11:50:45.920Z,5.06
2022-12-08T11:51:54.820Z,5.05
2022-12-08T11:52:58.994Z,5.06
2022-12-08T11:54:18.816Z,5.07
2022-12-08T11:55:37.293Z,5.07
2022-12-08T11:56:46.940Z,5.03
2022-12-08T11:57:49.612Z,5.02
2022-12-08T11:58:57.011Z,4.99
2022-12-08T12:00:02.842Z,4.94
2022-12-08T12:01:20.472Z,4.84
2022-12-08T12:02:26.802Z,4.81
2022-12-08T12:03:33.385Z,4.74
2022-12-08T12:04:40.277Z,4.67
2022-12-08T12:06:13.115Z,4.62
2022-12-08T12:07:38.198Z,4.51
2022-12-08T12:08:47.544Z,4.46
2022-12-08T12:10:07.162Z,4.40
2022-12-08T12:11:38.316Z,4.33
2022-12-08T12:12:52.875Z,4.25
2022-12-08T12:14:02.481Z,4.21
2022-12-08T12:15:41.663Z,4.17
2022-12-08T12:16:55.885Z,4.09
2022-12-08T12:18:01.732Z,4.08
2022-12-08T12:19:07.258Z,4.05
2022-12-08T12:20:16.207Z,4.05
2022-12-08T12:21:22.352Z,4.07
2022-12-08T12:22:25.886Z,4.07
2022-12-08T12:23:36.698Z,4.08
2022-12-08T12:24:40.937Z,4.07
2022-12-08T12:25:49.637Z,4.05
2022-12-08T12:27:00.437Z,4.03
2022-12-08T12:28:06.365Z,4.03
2022-12-08T12:29:16.685Z,4.01
2022-12-08T12:30:22.983Z,3.99
2022-12-08T12:31:28.269Z,3.99
2022-12-08T12:32:43.204Z,3.97
2022-12-08T12:33:48.258Z,3.94
2022-12-08T12:34:54.528Z,3.89
2022-12-08T12:35:57.905Z,3.84
2022-12-08T12:37:07.668Z,3.81
2022-12-08T12:38:39.643Z,3.76
2022-12-08T12:39:50.577Z,3.69
2022-12-08T12:40:59.555Z,3.65
2022-12-08T12:42:06.634Z,3.64
2022-12-08T12:43:14.986Z,3.59
2022-12-08T12:44:38.219Z,3.58
2022-12-08T12:45:44.122Z,3.55
2022-12-08T12:46:58.971Z,3.53
2022-12-08T12:48:22.516Z,3.50
2022-12-08T12:49:51.814Z,3.47
2022-12-08T12:50:57.110Z,3.44
2022-12-08T12:51:59.854Z,3.41
2022-12-08T12:53:10.625Z,3.39
2022-12-08T12:54:24.388Z,3.37
2022-12-08T12:55:53.292Z,3.37
2022-12-08T12:56:57.837Z,3.36
2022-12-08T12:58:16.553Z,3.36
2022-12-08T12:59:42.686Z,3.36
2022-12-08T13:00:46.444Z,3.35
2022-12-08T13:01:56.229Z,3.37
2022-12-08T13:03:00.642Z,3.38
2022-12-08T13:04:06.054Z,3.39
2022-12-08T13:05:12.300Z,3.42
2022-12-08T13:06:16.122Z,3.42
2022-12-08T13:07:22.282Z,3.43
2022-12-08T13:08:28.004Z,3.44
2022-12-08T13:09:37.312Z,3.45
2022-12-08T13:10:42.026Z,3.46
2022-12-08T13:11:50.424Z,3.45
2022-12-08T13:13:07.838Z,3.46
2022-12-08T13:14:27.066Z,3.45
2022-12-08T13:15:36.242Z,3.45
2022-12-08T13:16:40.005Z,3.46
2022-12-08T13:17:46.414Z,3.46
2022-12-08T13:18:51.335Z,3.47
2022-12-08T13:19:57.909Z,3.48
2022-12-08T13:21:06.385Z,3.50
2022-12-08T13:22:47.336Z,3.49
2022-12-08T13:23:53.383Z,3.47
2022-12-08T13:25:49.962Z,3.47
2022-12-08T13:27:30.093Z,3.43
2022-12-08T13:28:35.498Z,3.40
2022-12-08T13:29:39.654Z,3.42
2022-12-08T13:30:44.377Z,3.43
2022-12-08T13:31:51.395Z,3.44
2022-12-08T13:34:24.043Z,3.43
2022-12-08T13:35:26.985Z,3.43
2022-12-08T13:36:34.513Z,3.43
2022-12-08T13:37:54.325Z,3.42
2022-12-08T13:38:59.991Z,3.40
2022-12-08T13:40:05.938Z,3.42
2022-12-08T13:41:18.121Z,3.40
2022-12-08T13:42:25.710Z,3.38
2022-12-08T13:43:51.057Z,3.37
2022-12-08T13:45:48.751Z,3.34
2022-12-08T13:48:26.644Z,3.29
2022-12-08T13:51:23.606Z,3.23
2022-12-08T13:56:44.008Z,2.96
2022-12-08T13:57:11.955Z,2.92
2022-12-08T13:58:20.196Z,2.88
2022-12-08T13:59:30.956Z,2.87
2022-12-08T14:00:33.889Z,2.84
2022-12-08T14:01:45.139Z,2.83
2022-12-08T14:02:50.024Z,2.82
2022-12-08T14:05:40.798Z,2.79
2022-12-08T14:06:46.624Z,2.75
2022-12-08T14:07:52.854Z,2.75
2022-12-08T14:09:01.474Z,2.73
2022-12-08T14:10:10.477Z,2.74
2022-12-08T14:11:33.687Z,2.73
2022-12-08T14:12:38.202Z,2.72
2022-12-08T14:13:40.913Z,2.73
2022-12-08T14:15:03.826Z,2.73
2022-12-08T14:16:12.923Z,2.73
2022-12-08T14:17:19.415Z,2.74
2022-12-08T14:18:25.346Z,2.74
2022-12-08T14:19:30.262Z,2.77
2022-12-08T14:20:57.813Z,2.77
2022-12-08T14:22:01.333Z,2.79
2022-12-08T14:23:08.685Z,2.81
2022-12-08T14:24:12.249Z,2.81
2022-12-08T14:25:17.866Z,2.84
2022-12-08T14:26:25.264Z,2.84
2022-12-08T14:27:34.541Z,2.87
2022-12-08T14:28:44.408Z,2.90
2022-12-08T14:29:52.383Z,2.91
2022-12-08T14:30:57.277Z,2.91
2022-12-08T14:32:01.097Z,2.92
2022-12-08T14:33:05.747Z,2.93
2022-12-08T14:34:12.285Z,2.95
2022-12-08T14:35:22.139Z,2.95
2022-12-08T14:36:26.240Z,2.97
2022-12-08T14:37:32.957Z,2.98
2022-12-08T14:38:36.789Z,2.98
2022-12-08T14:39:40.073Z,3.00
2022-12-08T14:40:45.909Z,3.01
2022-12-08T14:42:01.006Z,3.01
2022-12-08T14:43:15.053Z,3.01
2022-12-08T14:44:24.856Z,3.00
2022-12-08T14:45:30.138Z,2.98
2022-12-08T14:46:32.932Z,2.98
2022-12-08T14:47:36.854Z,2.98
2022-12-08T14:48:44.933Z,2.96
2022-12-08T14:49:48.364Z,2.94
2022-12-08T14:51:05.286Z,2.92
2022-12-08T14:52:11.053Z,2.90
2022-12-08T14:53:15.616Z,2.88
2022-12-08T14:54:20.554Z,2.87
2022-12-08T14:55:24.426Z,2.86